sensor_id;sensor_type;location;lat;lon;timestamp;temperature;humidity
63897;DHT22;50063;52.084;5.414;2022-10-16T00:01:43;14.00;99.90
63897;DHT22;50063;52.084;5.414;2022-10-16T00:04:10;14.00;99.90
63897;DHT22;50063;52.084;5.414;2022-10-16T00:06:36;14.00;99.90
63897;DHT22;50063;52.084;5.414;2022-10-16T00:09:06;14.00;99.90
63897;DHT22;50063;52.084;5.414;2022-10-16T00:11:33;13.90;99.90
63897;DHT22;50063;52.084;5.414;2022-10-16T00:14:00;14.00;99.90
63897;DHT22;50063;52.084;5.414;2022-10-16T00:16:28;13.90;99.90
63897;DHT22;50063;52.084;5.414;2022-10-16T00:18:55;13.90;99.90
63897;DHT22;50063;52.084;5.414;2022-10-16T00:21:23;13.90;99.90
63897;DHT22;50063;52.084;5.414;2022-10-16T00:23:51;13.90;99.90
63897;DHT22;50063;52.084;5.414;2022-10-16T00:26:18;13.90;99.90
63897;DHT22;50063;52.084;5.414;2022-10-16T00:28:45;14.00;99.90
63897;DHT22;50063;52.084;5.414;2022-10-16T00:31:12;14.00;99.90
63897;DHT22;50063;52.084;5.414;2022-10-16T00:33:39;14.00;99.90
63897;DHT22;50063;52.084;5.414;2022-10-16T00:36:06;14.00;99.90
63897;DHT22;50063;52.084;5.414;2022-10-16T00:38:33;14.00;99.90
63897;DHT22;50063;52.084;5.414;2022-10-16T00:41:00;14.00;99.90
63897;DHT22;50063;52.084;5.414;2022-10-16T00:43:34;14.10;99.90
63897;DHT22;50063;52.084;5.414;2022-10-16T00:46:02;14.00;99.90
63897;DHT22;50063;52.084;5.414;2022-10-16T00:48:29;14.00;99.90
63897;DHT22;50063;52.084;5.414;2022-10-16T00:50:57;14.10;99.90
63897;DHT22;50063;52.084;5.414;2022-10-16T00:53:24;14.10;99.90
63897;DHT22;50063;52.084;5.414;2022-10-16T00:55:53;14.10;99.90
63897;DHT22;50063;52.084;5.414;2022-10-16T00:58:20;14.10;99.90
63897;DHT22;50063;52.084;5.414;2022-10-16T01:00:47;14.20;99.90
63897;DHT22;50063;52.084;5.414;2022-10-16T01:05:52;14.10;99.90
63897;DHT22;50063;52.084;5.414;2022-10-16T01:08:22;14.10;99.90
63897;DHT22;50063;52.084;5.414;2022-10-16T01:11:27;14.20;99.90
63897;DHT22;50063;52.084;5.414;2022-10-16T01:13:46;14.10;99.90
63897;DHT22;50063;52.084;5.414;2022-10-16T01:18:58;14.30;99.90
63897;DHT22;50063;52.084;5.414;2022-10-16T01:21:35;14.30;99.90
63897;DHT22;50063;52.084;5.414;2022-10-16T01:24:11;14.30;99.90
63897;DHT22;50063;52.084;5.414;2022-10-16T01:29:25;14.30;99.90
63897;DHT22;50063;52.084;5.414;2022-10-16T01:31:54;14.40;99.90
63897;DHT22;50063;52.084;5.414;2022-10-16T01:34:28;14.40;99.90
63897;DHT22;50063;52.084;5.414;2022-10-16T01:36:58;14.40;99.90
63897;DHT22;50063;52.084;5.414;2022-10-16T01:39:29;14.40;99.90
63897;DHT22;50063;52.084;5.414;2022-10-16T01:42:31;14.40;99.90
63897;DHT22;50063;52.084;5.414;2022-10-16T01:44:50;14.40;99.90
63897;DHT22;50063;52.084;5.414;2022-10-16T01:47:17;14.40;99.90
63897;DHT22;50063;52.084;5.414;2022-10-16T01:49:46;14.50;99.90
63897;DHT22;50063;52.084;5.414;2022-10-16T01:52:14;14.40;99.90
63897;DHT22;50063;52.084;5.414;2022-10-16T01:54:43;14.50;99.90
63897;DHT22;50063;52.084;5.414;2022-10-16T01:57:12;14.50;99.90
63897;DHT22;50063;52.084;5.414;2022-10-16T01:59:42;14.50;99.90
63897;DHT22;50063;52.084;5.414;2022-10-16T02:02:10;14.50;99.90
63897;DHT22;50063;52.084;5.414;2022-10-16T02:04:38;14.50;99.90
63897;DHT22;50063;52.084;5.414;2022-10-16T02:07:05;14.50;99.90
63897;DHT22;50063;52.084;5.414;2022-10-16T02:09:33;14.50;99.90
63897;DHT22;50063;52.084;5.414;2022-10-16T02:12:01;14.50;99.90
63897;DHT22;50063;52.084;5.414;2022-10-16T02:14:29;14.50;99.90
63897;DHT22;50063;52.084;5.414;2022-10-16T02:16:56;14.50;99.90
63897;DHT22;50063;52.084;5.414;2022-10-16T02:19:23;14.50;99.90
63897;DHT22;50063;52.084;5.414;2022-10-16T02:22:00;14.60;99.90
63897;DHT22;50063;52.084;5.414;2022-10-16T02:27:11;14.60;99.90
63897;DHT22;50063;52.084;5.414;2022-10-16T02:29:39;14.50;99.90
63897;DHT22;50063;52.084;5.414;2022-10-16T02:32:07;14.50;99.90
63897;DHT22;50063;52.084;5.414;2022-10-16T02:34:34;14.50;99.90
63897;DHT22;50063;52.084;5.414;2022-10-16T02:37:02;14.50;99.90
63897;DHT22;50063;52.084;5.414;2022-10-16T02:39:29;14.40;99.90
63897;DHT22;50063;52.084;5.414;2022-10-16T02:41:56;14.40;99.90
63897;DHT22;50063;52.084;5.414;2022-10-16T02:44:23;14.40;99.90
63897;DHT22;50063;52.084;5.414;2022-10-16T02:46:49;14.40;99.90
63897;DHT22;50063;52.084;5.414;2022-10-16T02:49:16;14.30;99.90
63897;DHT22;50063;52.084;5.414;2022-10-16T02:51:43;14.40;99.90
63897;DHT22;50063;52.084;5.414;2022-10-16T02:54:09;14.30;99.90
63897;DHT22;50063;52.084;5.414;2022-10-16T02:56:36;14.30;99.90
63897;DHT22;50063;52.084;5.414;2022-10-16T02:59:02;14.30;99.90
63897;DHT22;50063;52.084;5.414;2022-10-16T03:01:29;14.30;99.90
63897;DHT22;50063;52.084;5.414;2022-10-16T03:03:55;14.20;99.90
63897;DHT22;50063;52.084;5.414;2022-10-16T03:06:22;14.20;99.90
63897;DHT22;50063;52.084;5.414;2022-10-16T03:08:51;14.20;99.90
63897;DHT22;50063;52.084;5.414;2022-10-16T03:11:18;14.30;99.90
63897;DHT22;50063;52.084;5.414;2022-10-16T03:13:44;14.20;99.90
63897;DHT22;50063;52.084;5.414;2022-10-16T03:16:11;14.30;99.90
63897;DHT22;50063;52.084;5.414;2022-10-16T03:18:38;14.30;99.90
63897;DHT22;50063;52.084;5.414;2022-10-16T03:21:04;14.30;99.90
63897;DHT22;50063;52.084;5.414;2022-10-16T03:23:31;14.30;99.90
63897;DHT22;50063;52.084;5.414;2022-10-16T03:25:57;14.20;99.90
63897;DHT22;50063;52.084;5.414;2022-10-16T03:28:24;14.30;99.90
63897;DHT22;50063;52.084;5.414;2022-10-16T03:30:50;14.10;99.90
63897;DHT22;50063;52.084;5.414;2022-10-16T03:33:17;14.10;99.90
63897;DHT22;50063;52.084;5.414;2022-10-16T03:35:50;14.20;99.90
63897;DHT22;50063;52.084;5.414;2022-10-16T03:38:19;14.20;99.90
63897;DHT22;50063;52.084;5.414;2022-10-16T03:40:45;14.20;99.90
63897;DHT22;50063;52.084;5.414;2022-10-16T03:43:12;14.20;99.90
63897;DHT22;50063;52.084;5.414;2022-10-16T03:45:39;14.10;99.90
63897;DHT22;50063;52.084;5.414;2022-10-16T03:48:06;14.10;99.90
63897;DHT22;50063;52.084;5.414;2022-10-16T03:50:33;14.10;99.90
63897;DHT22;50063;52.084;5.414;2022-10-16T03:52:59;14.00;99.90
63897;DHT22;50063;52.084;5.414;2022-10-16T03:55:26;14.00;99.90
63897;DHT22;50063;52.084;5.414;2022-10-16T03:57:52;14.00;99.90
63897;DHT22;50063;52.084;5.414;2022-10-16T04:00:22;13.90;99.90
63897;DHT22;50063;52.084;5.414;2022-10-16T04:02:49;14.00;99.90
63897;DHT22;50063;52.084;5.414;2022-10-16T04:05:15;14.00;99.90
63897;DHT22;50063;52.084;5.414;2022-10-16T04:07:42;13.90;99.90
63897;DHT22;50063;52.084;5.414;2022-10-16T04:10:08;13.90;99.90
63897;DHT22;50063;52.084;5.414;2022-10-16T04:12:35;14.00;99.90
63897;DHT22;50063;52.084;5.414;2022-10-16T04:15:02;13.90;99.90
63897;DHT22;50063;52.084;5.414;2022-10-16T04:17:29;13.80;99.90
63897;DHT22;50063;52.084;5.414;2022-10-16T04:19:55;13.90;99.90
63897;DHT22;50063;52.084;5.414;2022-10-16T04:22:22;13.80;99.90
63897;DHT22;50063;52.084;5.414;2022-10-16T04:24:52;13.80;99.90
63897;DHT22;50063;52.084;5.414;2022-10-16T04:27:19;13.70;99.90
63897;DHT22;50063;52.084;5.414;2022-10-16T04:29:45;13.80;99.90
63897;DHT22;50063;52.084;5.414;2022-10-16T04:32:12;13.80;99.90
63897;DHT22;50063;52.084;5.414;2022-10-16T04:34:39;13.80;99.90
63897;DHT22;50063;52.084;5.414;2022-10-16T04:37:06;13.80;99.90
63897;DHT22;50063;52.084;5.414;2022-10-16T04:39:32;13.80;99.90
63897;DHT22;50063;52.084;5.414;2022-10-16T04:41:59;13.70;99.90
63897;DHT22;50063;52.084;5.414;2022-10-16T04:44:26;13.70;99.90
63897;DHT22;50063;52.084;5.414;2022-10-16T04:46:52;13.70;99.90
63897;DHT22;50063;52.084;5.414;2022-10-16T04:49:19;13.70;99.90
63897;DHT22;50063;52.084;5.414;2022-10-16T04:51:46;13.70;99.90
63897;DHT22;50063;52.084;5.414;2022-10-16T04:54:12;13.80;99.90
63897;DHT22;50063;52.084;5.414;2022-10-16T04:56:39;13.70;99.90
63897;DHT22;50063;52.084;5.414;2022-10-16T04:59:17;13.70;99.90
63897;DHT22;50063;52.084;5.414;2022-10-16T05:01:46;13.70;99.90
63897;DHT22;50063;52.084;5.414;2022-10-16T05:04:13;13.70;99.90
63897;DHT22;50063;52.084;5.414;2022-10-16T05:06:41;13.80;99.90
63897;DHT22;50063;52.084;5.414;2022-10-16T05:09:08;13.70;99.90
63897;DHT22;50063;52.084;5.414;2022-10-16T05:11:35;13.70;99.90
63897;DHT22;50063;52.084;5.414;2022-10-16T05:14:01;13.70;99.90
63897;DHT22;50063;52.084;5.414;2022-10-16T05:16:28;13.70;99.90
63897;DHT22;50063;52.084;5.414;2022-10-16T05:18:55;13.60;99.90
63897;DHT22;50063;52.084;5.414;2022-10-16T05:21:42;13.60;99.90
63897;DHT22;50063;52.084;5.414;2022-10-16T05:24:08;13.60;99.90
63897;DHT22;50063;52.084;5.414;2022-10-16T05:26:35;13.50;99.90
63897;DHT22;50063;52.084;5.414;2022-10-16T05:29:03;13.40;99.90
63897;DHT22;50063;52.084;5.414;2022-10-16T05:31:30;13.50;99.90
63897;DHT22;50063;52.084;5.414;2022-10-16T05:33:59;13.50;99.90
63897;DHT22;50063;52.084;5.414;2022-10-16T05:36:26;13.50;99.90
63897;DHT22;50063;52.084;5.414;2022-10-16T05:38:53;13.50;99.90
63897;DHT22;50063;52.084;5.414;2022-10-16T05:41:23;13.40;99.90
63897;DHT22;50063;52.084;5.414;2022-10-16T05:43:55;13.50;99.90
63897;DHT22;50063;52.084;5.414;2022-10-16T05:46:21;13.50;99.90
63897;DHT22;50063;52.084;5.414;2022-10-16T05:48:48;13.60;99.90
63897;DHT22;50063;52.084;5.414;2022-10-16T05:51:17;13.50;99.90
63897;DHT22;50063;52.084;5.414;2022-10-16T05:53:44;13.60;99.90
63897;DHT22;50063;52.084;5.414;2022-10-16T05:56:11;13.60;99.90
63897;DHT22;50063;52.084;5.414;2022-10-16T05:58:39;13.50;99.90
63897;DHT22;50063;52.084;5.414;2022-10-16T06:01:11;13.50;99.90
63897;DHT22;50063;52.084;5.414;2022-10-16T06:03:38;13.60;99.90
63897;DHT22;50063;52.084;5.414;2022-10-16T06:06:09;13.60;99.90
63897;DHT22;50063;52.084;5.414;2022-10-16T06:08:41;13.60;99.90
63897;DHT22;50063;52.084;5.414;2022-10-16T06:11:10;13.80;99.90
63897;DHT22;50063;52.084;5.414;2022-10-16T06:13:37;13.80;99.90
63897;DHT22;50063;52.084;5.414;2022-10-16T06:16:05;13.80;99.90
63897;DHT22;50063;52.084;5.414;2022-10-16T06:18:34;13.80;99.90
63897;DHT22;50063;52.084;5.414;2022-10-16T06:21:06;13.80;99.90
63897;DHT22;50063;52.084;5.414;2022-10-16T06:23:33;13.80;99.90
63897;DHT22;50063;52.084;5.414;2022-10-16T06:26:10;13.90;99.90
63897;DHT22;50063;52.084;5.414;2022-10-16T06:28:37;14.00;99.90
63897;DHT22;50063;52.084;5.414;2022-10-16T06:31:04;14.00;99.90
63897;DHT22;50063;52.084;5.414;2022-10-16T06:33:34;14.00;99.90
63897;DHT22;50063;52.084;5.414;2022-10-16T06:36:08;14.00;99.90
63897;DHT22;50063;52.084;5.414;2022-10-16T06:38:38;14.10;99.90
63897;DHT22;50063;52.084;5.414;2022-10-16T06:41:05;14.10;99.90
63897;DHT22;50063;52.084;5.414;2022-10-16T06:43:33;14.10;99.90
63897;DHT22;50063;52.084;5.414;2022-10-16T06:46:02;14.10;99.90
63897;DHT22;50063;52.084;5.414;2022-10-16T06:48:29;14.10;99.90
63897;DHT22;50063;52.084;5.414;2022-10-16T06:50:59;14.20;99.90
63897;DHT22;50063;52.084;5.414;2022-10-16T06:53:27;14.10;99.90
63897;DHT22;50063;52.084;5.414;2022-10-16T06:55:54;14.00;99.90
63897;DHT22;50063;52.084;5.414;2022-10-16T06:58:21;14.10;99.90
63897;DHT22;50063;52.084;5.414;2022-10-16T07:00:47;14.10;99.90
63897;DHT22;50063;52.084;5.414;2022-10-16T07:03:14;14.20;99.90
63897;DHT22;50063;52.084;5.414;2022-10-16T07:05:41;14.10;99.90
63897;DHT22;50063;52.084;5.414;2022-10-16T07:08:08;14.20;99.90
63897;DHT22;50063;52.084;5.414;2022-10-16T07:10:35;14.20;99.90
63897;DHT22;50063;52.084;5.414;2022-10-16T07:13:02;14.30;99.90
63897;DHT22;50063;52.084;5.414;2022-10-16T07:15:28;14.30;99.90
63897;DHT22;50063;52.084;5.414;2022-10-16T07:17:55;14.40;99.90
63897;DHT22;50063;52.084;5.414;2022-10-16T07:20:22;14.30;99.90
63897;DHT22;50063;52.084;5.414;2022-10-16T07:22:49;14.40;99.90
63897;DHT22;50063;52.084;5.414;2022-10-16T07:25:15;14.40;99.90
63897;DHT22;50063;52.084;5.414;2022-10-16T07:27:42;14.30;99.90
63897;DHT22;50063;52.084;5.414;2022-10-16T07:30:08;14.40;99.90
63897;DHT22;50063;52.084;5.414;2022-10-16T07:32:35;14.40;99.90
63897;DHT22;50063;52.084;5.414;2022-10-16T07:35:02;14.30;99.90
63897;DHT22;50063;52.084;5.414;2022-10-16T07:37:28;14.50;99.90
63897;DHT22;50063;52.084;5.414;2022-10-16T07:39:55;14.50;99.90
63897;DHT22;50063;52.084;5.414;2022-10-16T07:42:22;14.50;99.90
63897;DHT22;50063;52.084;5.414;2022-10-16T07:44:49;14.50;99.90
63897;DHT22;50063;52.084;5.414;2022-10-16T07:47:15;14.60;99.90
63897;DHT22;50063;52.084;5.414;2022-10-16T07:49:42;14.60;99.90
63897;DHT22;50063;52.084;5.414;2022-10-16T07:52:08;14.60;99.90
63897;DHT22;50063;52.084;5.414;2022-10-16T07:54:35;14.50;99.90
63897;DHT22;50063;52.084;5.414;2022-10-16T07:57:02;14.50;99.90
63897;DHT22;50063;52.084;5.414;2022-10-16T07:59:28;14.50;99.90
63897;DHT22;50063;52.084;5.414;2022-10-16T08:01:55;14.50;99.90
63897;DHT22;50063;52.084;5.414;2022-10-16T08:04:21;14.40;99.90
63897;DHT22;50063;52.084;5.414;2022-10-16T08:06:48;14.50;99.90
63897;DHT22;50063;52.084;5.414;2022-10-16T08:09:16;14.30;99.90
63897;DHT22;50063;52.084;5.414;2022-10-16T08:11:43;14.30;99.90
63897;DHT22;50063;52.084;5.414;2022-10-16T08:14:10;14.40;99.90
63897;DHT22;50063;52.084;5.414;2022-10-16T08:16:37;14.40;99.90
63897;DHT22;50063;52.084;5.414;2022-10-16T08:19:04;14.40;99.90
63897;DHT22;50063;52.084;5.414;2022-10-16T08:21:30;14.50;99.90
63897;DHT22;50063;52.084;5.414;2022-10-16T08:23:56;14.60;99.90
63897;DHT22;50063;52.084;5.414;2022-10-16T08:26:24;14.60;99.90
63897;DHT22;50063;52.084;5.414;2022-10-16T08:28:51;14.60;99.90
63897;DHT22;50063;52.084;5.414;2022-10-16T08:31:18;14.60;99.90
63897;DHT22;50063;52.084;5.414;2022-10-16T08:33:45;14.60;99.90
63897;DHT22;50063;52.084;5.414;2022-10-16T08:36:13;14.60;99.90
63897;DHT22;50063;52.084;5.414;2022-10-16T08:38:40;14.60;99.90
63897;DHT22;50063;52.084;5.414;2022-10-16T08:46:10;14.80;99.90
63897;DHT22;50063;52.084;5.414;2022-10-16T08:48:48;14.90;99.90
63897;DHT22;50063;52.084;5.414;2022-10-16T08:51:19;15.00;99.90
63897;DHT22;50063;52.084;5.414;2022-10-16T08:53:52;15.10;99.90
63897;DHT22;50063;52.084;5.414;2022-10-16T08:56:20;15.10;99.90
63897;DHT22;50063;52.084;5.414;2022-10-16T08:58:46;15.20;99.90
63897;DHT22;50063;52.084;5.414;2022-10-16T09:01:14;15.20;99.90
63897;DHT22;50063;52.084;5.414;2022-10-16T09:08:46;15.20;99.90
63897;DHT22;50063;52.084;5.414;2022-10-16T09:16:19;15.50;99.90
63897;DHT22;50063;52.084;5.414;2022-10-16T09:19:00;15.50;99.90
63897;DHT22;50063;52.084;5.414;2022-10-16T09:21:33;15.50;99.90
63897;DHT22;50063;52.084;5.414;2022-10-16T09:24:12;15.50;99.90
63897;DHT22;50063;52.084;5.414;2022-10-16T09:26:40;15.50;99.90
63897;DHT22;50063;52.084;5.414;2022-10-16T09:29:08;15.50;99.90
63897;DHT22;50063;52.084;5.414;2022-10-16T09:31:35;15.60;99.90
63897;DHT22;50063;52.084;5.414;2022-10-16T09:34:02;15.70;99.90
63897;DHT22;50063;52.084;5.414;2022-10-16T09:36:36;15.70;99.90
63897;DHT22;50063;52.084;5.414;2022-10-16T09:39:06;15.80;99.90
63897;DHT22;50063;52.084;5.414;2022-10-16T09:41:34;15.80;99.90
63897;DHT22;50063;52.084;5.414;2022-10-16T09:44:02;15.90;99.90
63897;DHT22;50063;52.084;5.414;2022-10-16T09:46:31;16.10;99.90
63897;DHT22;50063;52.084;5.414;2022-10-16T09:49:01;16.20;99.90
63897;DHT22;50063;52.084;5.414;2022-10-16T09:51:30;16.20;99.90
63897;DHT22;50063;52.084;5.414;2022-10-16T09:53:58;16.30;99.90
63897;DHT22;50063;52.084;5.414;2022-10-16T09:56:26;16.20;99.90
63897;DHT22;50063;52.084;5.414;2022-10-16T09:58:54;16.40;99.90
63897;DHT22;50063;52.084;5.414;2022-10-16T10:01:24;16.50;99.90
63897;DHT22;50063;52.084;5.414;2022-10-16T10:03:55;16.40;99.90
63897;DHT22;50063;52.084;5.414;2022-10-16T10:06:28;16.40;99.90
63897;DHT22;50063;52.084;5.414;2022-10-16T10:08:56;16.30;99.90
63897;DHT22;50063;52.084;5.414;2022-10-16T10:14:15;16.30;99.90
63897;DHT22;50063;52.084;5.414;2022-10-16T10:16:43;16.40;99.90
63897;DHT22;50063;52.084;5.414;2022-10-16T10:19:13;16.40;99.90
63897;DHT22;50063;52.084;5.414;2022-10-16T10:21:40;16.40;99.90
63897;DHT22;50063;52.084;5.414;2022-10-16T10:24:11;16.40;99.90
63897;DHT22;50063;52.084;5.414;2022-10-16T10:26:38;16.30;99.90
63897;DHT22;50063;52.084;5.414;2022-10-16T10:31:49;16.50;99.90
63897;DHT22;50063;52.084;5.414;2022-10-16T10:37:14;16.50;99.90
63897;DHT22;50063;52.084;5.414;2022-10-16T10:40:11;16.50;99.90
63897;DHT22;50063;52.084;5.414;2022-10-16T10:42:47;16.60;99.90
63897;DHT22;50063;52.084;5.414;2022-10-16T10:50:14;16.80;99.90
63897;DHT22;50063;52.084;5.414;2022-10-16T11:08:18;17.20;99.90
63897;DHT22;50063;52.084;5.414;2022-10-16T11:10:53;17.30;99.90
63897;DHT22;50063;52.084;5.414;2022-10-16T11:15:51;17.20;99.90
63897;DHT22;50063;52.084;5.414;2022-10-16T11:21:05;17.00;99.90
63897;DHT22;50063;52.084;5.414;2022-10-16T11:23:36;17.10;99.90
63897;DHT22;50063;52.084;5.414;2022-10-16T11:26:04;17.10;99.90
63897;DHT22;50063;52.084;5.414;2022-10-16T11:28:34;17.30;99.90
63897;DHT22;50063;52.084;5.414;2022-10-16T11:33:47;17.10;99.90
63897;DHT22;50063;52.084;5.414;2022-10-16T11:44:14;17.00;99.90
63897;DHT22;50063;52.084;5.414;2022-10-16T11:46:43;17.00;99.90
63897;DHT22;50063;52.084;5.414;2022-10-16T11:49:26;17.00;99.90
63897;DHT22;50063;52.084;5.414;2022-10-16T11:52:05;16.90;99.90
63897;DHT22;50063;52.084;5.414;2022-10-16T11:54:56;16.80;99.90
63897;DHT22;50063;52.084;5.414;2022-10-16T11:57:24;16.90;99.90
63897;DHT22;50063;52.084;5.414;2022-10-16T12:04:51;17.00;99.90
63897;DHT22;50063;52.084;5.414;2022-10-16T12:07:24;17.00;99.90
63897;DHT22;50063;52.084;5.414;2022-10-16T12:09:53;17.10;99.90
63897;DHT22;50063;52.084;5.414;2022-10-16T12:12:27;17.10;99.90
63897;DHT22;50063;52.084;5.414;2022-10-16T12:15:00;17.00;99.90
63897;DHT22;50063;52.084;5.414;2022-10-16T12:17:47;17.10;99.90
63897;DHT22;50063;52.084;5.414;2022-10-16T12:22:41;17.30;99.90
63897;DHT22;50063;52.084;5.414;2022-10-16T12:25:21;17.30;99.90
63897;DHT22;50063;52.084;5.414;2022-10-16T12:30:22;17.40;99.90
63897;DHT22;50063;52.084;5.414;2022-10-16T12:32:54;17.50;99.90
63897;DHT22;50063;52.084;5.414;2022-10-16T12:35:22;17.60;99.90
63897;DHT22;50063;52.084;5.414;2022-10-16T12:37:49;17.60;99.90
63897;DHT22;50063;52.084;5.414;2022-10-16T12:42:43;17.80;99.90
63897;DHT22;50063;52.084;5.414;2022-10-16T12:45:21;17.90;99.90
63897;DHT22;50063;52.084;5.414;2022-10-16T12:47:50;17.90;99.90
63897;DHT22;50063;52.084;5.414;2022-10-16T12:50:25;17.90;99.90
63897;DHT22;50063;52.084;5.414;2022-10-16T12:52:52;18.00;99.90
63897;DHT22;50063;52.084;5.414;2022-10-16T12:55:20;18.10;99.90
63897;DHT22;50063;52.084;5.414;2022-10-16T12:57:57;18.30;99.90
63897;DHT22;50063;52.084;5.414;2022-10-16T13:00:29;18.60;99.90
63897;DHT22;50063;52.084;5.414;2022-10-16T13:11:11;19.50;99.90
63897;DHT22;50063;52.084;5.414;2022-10-16T13:23:56;21.40;99.90
63897;DHT22;50063;52.084;5.414;2022-10-16T13:29:12;22.00;99.90
63897;DHT22;50063;52.084;5.414;2022-10-16T13:31:39;22.20;99.90
63897;DHT22;50063;52.084;5.414;2022-10-16T13:34:06;21.70;99.90
63897;DHT22;50063;52.084;5.414;2022-10-16T13:36:47;21.40;99.90
63897;DHT22;50063;52.084;5.414;2022-10-16T13:39:21;21.20;99.90
63897;DHT22;50063;52.084;5.414;2022-10-16T13:41:58;20.80;99.90
63897;DHT22;50063;52.084;5.414;2022-10-16T13:44:39;20.60;99.90
63897;DHT22;50063;52.084;5.414;2022-10-16T13:47:11;20.10;99.90
63897;DHT22;50063;52.084;5.414;2022-10-16T13:49:41;20.40;99.90
63897;DHT22;50063;52.084;5.414;2022-10-16T13:52:15;20.40;99.90
63897;DHT22;50063;52.084;5.414;2022-10-16T13:54:42;20.50;99.90
63897;DHT22;50063;52.084;5.414;2022-10-16T13:57:12;20.50;99.90
63897;DHT22;50063;52.084;5.414;2022-10-16T13:59:53;20.10;99.90
63897;DHT22;50063;52.084;5.414;2022-10-16T14:02:36;19.80;99.90
63897;DHT22;50063;52.084;5.414;2022-10-16T14:05:04;19.80;99.90
63897;DHT22;50063;52.084;5.414;2022-10-16T14:07:34;19.50;99.90
63897;DHT22;50063;52.084;5.414;2022-10-16T14:10:05;19.50;99.90
63897;DHT22;50063;52.084;5.414;2022-10-16T14:12:32;19.70;99.90
63897;DHT22;50063;52.084;5.414;2022-10-16T14:15:00;19.50;99.90
63897;DHT22;50063;52.084;5.414;2022-10-16T14:17:28;19.40;99.90
63897;DHT22;50063;52.084;5.414;2022-10-16T14:19:56;19.40;99.90
63897;DHT22;50063;52.084;5.414;2022-10-16T14:22:35;19.20;99.90
63897;DHT22;50063;52.084;5.414;2022-10-16T14:25:25;19.20;99.90
63897;DHT22;50063;52.084;5.414;2022-10-16T14:30:26;19.30;99.90
63897;DHT22;50063;52.084;5.414;2022-10-16T14:32:57;19.60;99.90
63897;DHT22;50063;52.084;5.414;2022-10-16T14:35:25;19.40;99.90
63897;DHT22;50063;52.084;5.414;2022-10-16T14:37:53;19.60;99.90
63897;DHT22;50063;52.084;5.414;2022-10-16T14:40:20;19.80;99.90
63897;DHT22;50063;52.084;5.414;2022-10-16T14:42:47;19.70;99.90
63897;DHT22;50063;52.084;5.414;2022-10-16T14:45:18;19.50;99.90
63897;DHT22;50063;52.084;5.414;2022-10-16T14:47:50;19.60;99.90
63897;DHT22;50063;52.084;5.414;2022-10-16T14:50:17;19.60;99.90
63897;DHT22;50063;52.084;5.414;2022-10-16T14:52:44;19.60;99.90
63897;DHT22;50063;52.084;5.414;2022-10-16T14:55:10;19.50;99.90
63897;DHT22;50063;52.084;5.414;2022-10-16T14:57:37;19.80;99.90
63897;DHT22;50063;52.084;5.414;2022-10-16T15:00:26;19.60;99.90
63897;DHT22;50063;52.084;5.414;2022-10-16T15:02:52;19.70;99.90
63897;DHT22;50063;52.084;5.414;2022-10-16T15:05:26;19.70;99.90
63897;DHT22;50063;52.084;5.414;2022-10-16T15:07:53;19.70;99.90
63897;DHT22;50063;52.084;5.414;2022-10-16T15:10:22;19.90;99.90
63897;DHT22;50063;52.084;5.414;2022-10-16T15:12:49;20.10;99.90
63897;DHT22;50063;52.084;5.414;2022-10-16T15:18:01;20.20;99.90
63897;DHT22;50063;52.084;5.414;2022-10-16T15:20:29;20.10;99.90
63897;DHT22;50063;52.084;5.414;2022-10-16T15:22:57;20.00;99.90
63897;DHT22;50063;52.084;5.414;2022-10-16T15:27:57;19.80;99.90
63897;DHT22;50063;52.084;5.414;2022-10-16T15:30:24;19.70;99.90
63897;DHT22;50063;52.084;5.414;2022-10-16T15:32:51;19.60;99.90
63897;DHT22;50063;52.084;5.414;2022-10-16T15:35:18;19.50;99.90
63897;DHT22;50063;52.084;5.414;2022-10-16T15:37:46;19.40;99.90
63897;DHT22;50063;52.084;5.414;2022-10-16T15:40:12;19.30;99.90
63897;DHT22;50063;52.084;5.414;2022-10-16T15:42:39;19.30;99.90
63897;DHT22;50063;52.084;5.414;2022-10-16T15:45:06;19.10;99.90
63897;DHT22;50063;52.084;5.414;2022-10-16T15:47:32;18.90;99.90
63897;DHT22;50063;52.084;5.414;2022-10-16T15:49:59;18.90;99.90
63897;DHT22;50063;52.084;5.414;2022-10-16T15:52:28;18.80;99.90
63897;DHT22;50063;52.084;5.414;2022-10-16T15:54:55;18.70;99.90
63897;DHT22;50063;52.084;5.414;2022-10-16T15:57:22;18.60;99.90
63897;DHT22;50063;52.084;5.414;2022-10-16T15:59:50;18.50;99.90
63897;DHT22;50063;52.084;5.414;2022-10-16T16:02:16;18.40;99.90
63897;DHT22;50063;52.084;5.414;2022-10-16T16:04:43;18.30;99.90
63897;DHT22;50063;52.084;5.414;2022-10-16T16:07:10;18.30;99.90
63897;DHT22;50063;52.084;5.414;2022-10-16T16:09:37;18.20;99.90
63897;DHT22;50063;52.084;5.414;2022-10-16T16:12:03;18.10;99.90
63897;DHT22;50063;52.084;5.414;2022-10-16T16:14:30;18.00;99.90
63897;DHT22;50063;52.084;5.414;2022-10-16T16:16:57;17.90;99.90
63897;DHT22;50063;52.084;5.414;2022-10-16T16:19:24;17.90;99.90
63897;DHT22;50063;52.084;5.414;2022-10-16T16:21:51;17.80;99.90
63897;DHT22;50063;52.084;5.414;2022-10-16T16:24:17;17.70;99.90
63897;DHT22;50063;52.084;5.414;2022-10-16T16:26:44;17.70;99.90
63897;DHT22;50063;52.084;5.414;2022-10-16T16:29:12;17.60;99.90
63897;DHT22;50063;52.084;5.414;2022-10-16T16:31:39;17.60;99.90
63897;DHT22;50063;52.084;5.414;2022-10-16T16:34:06;17.50;99.90
63897;DHT22;50063;52.084;5.414;2022-10-16T16:36:33;17.40;99.90
63897;DHT22;50063;52.084;5.414;2022-10-16T16:39:00;17.40;99.90
63897;DHT22;50063;52.084;5.414;2022-10-16T16:41:27;17.40;99.90
63897;DHT22;50063;52.084;5.414;2022-10-16T16:43:55;17.30;99.90
63897;DHT22;50063;52.084;5.414;2022-10-16T16:46:27;17.20;99.90
63897;DHT22;50063;52.084;5.414;2022-10-16T16:48:53;17.10;99.90
63897;DHT22;50063;52.084;5.414;2022-10-16T16:51:21;17.00;99.90
63897;DHT22;50063;52.084;5.414;2022-10-16T16:53:49;17.00;99.90
63897;DHT22;50063;52.084;5.414;2022-10-16T16:56:18;16.90;99.90
63897;DHT22;50063;52.084;5.414;2022-10-16T16:58:45;16.90;99.90
63897;DHT22;50063;52.084;5.414;2022-10-16T17:01:13;16.80;99.90
63897;DHT22;50063;52.084;5.414;2022-10-16T17:03:46;16.80;99.90
63897;DHT22;50063;52.084;5.414;2022-10-16T17:06:16;16.80;99.90
63897;DHT22;50063;52.084;5.414;2022-10-16T17:08:47;16.70;99.90
63897;DHT22;50063;52.084;5.414;2022-10-16T17:11:17;16.70;99.90
63897;DHT22;50063;52.084;5.414;2022-10-16T17:13:44;16.70;99.90
63897;DHT22;50063;52.084;5.414;2022-10-16T17:16:14;16.60;99.90
63897;DHT22;50063;52.084;5.414;2022-10-16T17:18:41;16.60;99.90
63897;DHT22;50063;52.084;5.414;2022-10-16T17:21:08;16.50;99.90
63897;DHT22;50063;52.084;5.414;2022-10-16T17:23:36;16.50;99.90
63897;DHT22;50063;52.084;5.414;2022-10-16T17:26:05;16.50;99.90
63897;DHT22;50063;52.084;5.414;2022-10-16T17:28:32;16.50;99.90
63897;DHT22;50063;52.084;5.414;2022-10-16T17:31:10;16.40;99.90
63897;DHT22;50063;52.084;5.414;2022-10-16T17:33:36;16.40;99.90